createdAt,value
2023-01-13T04:41:58.162Z,6.97
2023-01-13T04:45:01.809Z,5.60
2023-01-13T04:48:05.344Z,5.97
2023-01-13T04:51:08.361Z,6.05
2023-01-13T04:54:11.527Z,6.22
2023-01-13T04:57:14.531Z,5.75
2023-01-13T05:00:19.637Z,6.68
2023-01-13T05:03:24.339Z,7.00
2023-01-13T05:06:27.012Z,5.47
2023-01-13T05:09:30.092Z,5.28
2023-01-13T05:12:59.457Z,6.57
2023-01-13T05:16:24.021Z,7.47
2023-01-13T05:19:32.140Z,6.25
2023-01-13T05:22:53.753Z,5.25
2023-01-13T05:25:56.676Z,6.32
2023-01-13T05:32:02.692Z,5.62
2023-01-13T05:35:06.391Z,7.43
2023-01-13T05:38:09.411Z,6.40
2023-01-13T05:41:30.898Z,5.78
2023-01-13T05:44:33.584Z,5.25
2023-01-13T05:47:36.718Z,7.87
2023-01-13T05:50:39.902Z,6.87
2023-01-13T05:53:43.233Z,7.35
2023-01-13T05:56:45.884Z,6.72
2023-01-13T05:59:49.140Z,6.03
2023-01-13T06:02:52.276Z,7.55
2023-01-13T06:09:06.535Z,4.65
2023-01-13T06:12:13.363Z,6.12
2023-01-13T06:15:15.934Z,6.37
2023-01-13T06:21:21.881Z,5.55
2023-01-13T06:24:25.212Z,4.85
2023-01-13T06:27:29.163Z,6.45
2023-01-13T06:30:42.282Z,6.12
2023-01-13T06:33:55.843Z,5.50
2023-01-13T06:36:59.045Z,6.65
2023-01-13T06:40:05.653Z,5.35
2023-01-13T06:43:16.452Z,5.70
2023-01-13T06:46:19.655Z,5.70
2023-01-13T06:49:22.665Z,5.60
2023-01-13T06:52:25.411Z,5.55
2023-01-13T06:58:30.805Z,6.57
2023-01-13T07:01:33.757Z,6.87
2023-01-13T07:04:36.621Z,6.20
2023-01-13T07:07:40.083Z,7.45
2023-01-13T07:14:04.309Z,5.40
2023-01-13T07:17:06.958Z,5.53
2023-01-13T07:20:10.681Z,5.82
2023-01-13T07:23:14.707Z,6.12
2023-01-13T07:26:17.661Z,7.00
2023-01-13T07:29:20.598Z,6.45
2023-01-13T07:35:26.344Z,5.45
2023-01-13T07:38:30.413Z,6.40
2023-01-13T07:41:51.540Z,5.93
2023-01-13T07:44:54.474Z,5.50
2023-01-13T07:47:57.125Z,7.07
2023-01-13T07:54:25.491Z,4.70
2023-01-13T08:00:40.349Z,4.87
2023-01-13T08:03:43.900Z,5.85
2023-01-13T08:06:46.522Z,4.82
2023-01-13T08:09:50.374Z,5.05
2023-01-13T08:13:11.625Z,5.50
2023-01-13T08:16:15.926Z,4.87
2023-01-13T08:19:18.613Z,4.75
2023-01-13T08:22:22.816Z,4.75
2023-01-13T08:25:27.148Z,5.07
2023-01-13T08:28:33.143Z,6.45
2023-01-13T08:31:36.005Z,4.82
2023-01-13T08:37:42.118Z,4.15
2023-01-13T08:40:45.314Z,5.40
2023-01-13T08:43:48.062Z,4.57
2023-01-13T08:46:51.212Z,5.25
2023-01-13T08:49:54.595Z,4.97
2023-01-13T08:52:57.643Z,5.10
2023-01-13T08:56:00.555Z,4.03
2023-01-13T08:59:03.701Z,3.87
2023-01-13T09:05:17.755Z,3.40
2023-01-13T09:08:20.620Z,4.20
2023-01-13T09:11:49.723Z,4.22
2023-01-13T09:14:52.811Z,3.67
2023-01-13T09:17:55.951Z,3.90
2023-01-13T09:20:59.663Z,4.97
2023-01-13T09:24:02.566Z,3.83
2023-01-13T09:27:05.266Z,5.10
2023-01-13T09:30:09.036Z,3.62
2023-01-13T09:33:30.495Z,5.72
2023-01-13T09:36:33.652Z,4.70
2023-01-13T09:39:37.161Z,6.10
2023-01-13T09:43:13.661Z,4.72
2023-01-13T09:46:47.105Z,5.50
2023-01-13T09:49:51.003Z,5.20
2023-01-13T09:52:53.972Z,5.70
2023-01-13T09:55:57.076Z,6.35
2023-01-13T09:58:59.856Z,4.97
2023-01-13T10:02:41.709Z,5.75
2023-01-13T10:05:52.137Z,5.87
2023-01-13T10:08:56.032Z,5.32
2023-01-13T10:12:19.154Z,5.95
2023-01-13T10:15:24.129Z,5.63
2023-01-13T10:19:05.533Z,5.35
2023-01-13T10:22:23.157Z,6.80
2023-01-13T10:25:49.110Z,5.90
2023-01-13T10:28:53.873Z,5.22
2023-01-13T10:31:58.733Z,6.28
2023-01-13T10:35:02.344Z,5.32
2023-01-13T10:38:05.255Z,6.68
2023-01-13T10:41:17.972Z,5.47
2023-01-13T10:44:24.672Z,7.10
2023-01-13T10:47:36.642Z,6.20
2023-01-13T10:50:40.683Z,6.93
2023-01-13T10:53:49.993Z,6.22
2023-01-13T10:57:35.939Z,6.60
2023-01-13T11:00:38.830Z,6.22
2023-01-13T11:06:47.260Z,6.97
2023-01-13T11:10:19.805Z,6.25
2023-01-13T11:13:58.796Z,7.22
2023-01-13T11:17:32.825Z,6.43
2023-01-13T11:23:49.261Z,6.30
2023-01-13T11:27:07.443Z,7.20
2023-01-13T11:30:37.011Z,5.28
2023-01-13T11:33:53.103Z,7.37
2023-01-13T11:37:00.526Z,5.87
2023-01-13T11:40:12.429Z,6.80
2023-01-13T11:43:33.462Z,7.45
2023-01-13T11:46:36.828Z,6.10
2023-01-13T11:49:39.998Z,6.07
2023-01-13T11:52:42.993Z,6.18
2023-01-13T11:59:08.505Z,7.03
2023-01-13T12:02:27.039Z,7.93
2023-01-13T12:06:03.103Z,6.60
2023-01-13T12:09:32.864Z,7.55
2023-01-13T12:12:50.953Z,8.23
2023-01-13T12:16:05.195Z,7.12
2023-01-13T12:19:19.803Z,8.02
2023-01-13T12:22:28.093Z,7.55
2023-01-13T12:25:39.600Z,8.02
2023-01-13T12:28:54.583Z,7.37
2023-01-13T12:32:01.802Z,7.65
2023-01-13T12:35:42.275Z,7.72
2023-01-13T12:39:02.476Z,8.43
2023-01-13T12:42:36.442Z,6.18
2023-01-13T12:45:39.429Z,8.40
2023-01-13T12:48:54.723Z,8.07
2023-01-13T12:51:57.664Z,8.05
2023-01-13T12:55:03.670Z,8.25
2023-01-13T12:58:06.599Z,7.82
2023-01-13T13:01:17.047Z,7.82
2023-01-13T13:04:41.341Z,8.80
2023-01-13T13:08:06.937Z,8.52
2023-01-13T13:11:33.046Z,8.68
2023-01-13T13:14:41.979Z,8.85
2023-01-13T13:18:05.245Z,9.18
2023-01-13T13:21:09.940Z,9.20
2023-01-13T13:24:13.143Z,8.15
2023-01-13T13:27:25.007Z,8.85
2023-01-13T13:30:36.118Z,9.02
2023-01-13T13:34:10.789Z,7.75
2023-01-13T13:37:22.226Z,8.77
2023-01-13T13:40:45.285Z,8.90
2023-01-13T13:44:07.328Z,8.15
2023-01-13T13:47:10.527Z,8.18
2023-01-13T13:50:17.884Z,8.73
2023-01-13T13:53:22.475Z,7.57
2023-01-13T13:56:29.247Z,7.75
2023-01-13T13:59:33.864Z,7.68
2023-01-13T14:02:37.753Z,7.32
2023-01-13T14:05:56.285Z,6.50
2023-01-13T14:08:59.041Z,7.22
2023-01-13T14:12:06.747Z,8.60
2023-01-13T14:15:36.045Z,6.47
2023-01-13T14:18:46.285Z,6.97
2023-01-13T14:21:48.997Z,7.47
2023-01-13T14:24:58.606Z,6.47
2023-01-13T14:28:17.295Z,7.62
2023-01-13T14:31:20.877Z,6.97
2023-01-13T14:37:41.773Z,5.65
2023-01-13T14:40:46.803Z,6.82
2023-01-13T14:43:51.759Z,7.00
2023-01-13T14:46:59.485Z,7.68
2023-01-13T14:50:04.642Z,7.12
2023-01-13T14:53:28.443Z,6.35
2023-01-13T14:56:50.836Z,6.15
2023-01-13T15:00:14.785Z,7.25
2023-01-13T15:03:21.129Z,6.68
2023-01-13T15:06:26.027Z,6.93
2023-01-13T15:09:41.972Z,7.37
2023-01-13T15:12:44.733Z,7.05
2023-01-13T15:15:52.080Z,7.12
2023-01-13T15:18:56.609Z,7.70
2023-01-13T15:21:59.480Z,6.85
2023-01-13T15:25:02.223Z,7.53
2023-01-13T15:31:10.085Z,6.45
2023-01-13T15:34:13.020Z,7.93
2023-01-13T15:37:17.117Z,8.75
2023-01-13T15:40:31.635Z,8.50
2023-01-13T15:43:52.986Z,7.12
2023-01-13T15:46:57.056Z,8.55
2023-01-13T15:49:59.925Z,7.45
2023-01-13T15:53:03.712Z,7.45
2023-01-13T15:56:14.977Z,7.87
2023-01-13T15:59:22.025Z,7.62
2023-01-13T16:02:25.382Z,7.93
2023-01-13T16:05:28.328Z,8.60
2023-01-13T16:08:31.068Z,7.68
2023-01-13T16:11:34.020Z,8.07
2023-01-13T16:14:37.123Z,7.60
2023-01-13T16:20:46.665Z,8.48
2023-01-13T16:23:50.984Z,7.45
2023-01-13T16:26:53.624Z,7.15
